createdAt,value
2022-10-18T00:00:01.800Z,97927.75
2022-10-18T00:02:31.393Z,97916.16
2022-10-18T00:04:58.041Z,97916.16
2022-10-18T00:07:24.671Z,97920.50
2022-10-18T00:09:51.317Z,97915.53
2022-10-18T00:12:17.850Z,97909.84
2022-10-18T00:14:44.443Z,97908.38
2022-10-18T00:17:11.030Z,97905.94
2022-10-18T00:19:37.605Z,97901.59
2022-10-18T00:22:04.289Z,97912.22
2022-10-18T00:24:30.881Z,97911.38
2022-10-18T00:26:57.440Z,97911.94
2022-10-18T00:29:24.051Z,97910.50
2022-10-18T00:31:50.603Z,97909.66
2022-10-18T00:34:17.209Z,97908.69
2022-10-18T00:36:44.711Z,97912.91
2022-10-18T00:39:19.498Z,97906.06
2022-10-18T00:41:46.790Z,97903.66
2022-10-18T00:44:13.303Z,97900.19
2022-10-18T00:46:42.838Z,97897.56
2022-10-18T00:49:16.504Z,97901.69
2022-10-18T00:51:46.662Z,97904.13
2022-10-18T00:54:16.356Z,97911.16
2022-10-18T00:56:44.861Z,97911.16
2022-10-18T00:59:14.486Z,97924.56
2022-10-18T01:01:41.118Z,97929.25
2022-10-18T01:04:08.089Z,97945.66
2022-10-18T01:06:43.812Z,97960.88
2022-10-18T01:09:22.493Z,97965.13
2022-10-18T01:12:05.848Z,97964.91
2022-10-18T01:14:54.151Z,97941.69
2022-10-18T01:17:32.176Z,97930.22
2022-10-18T01:20:17.312Z,97922.22
2022-10-18T01:22:58.897Z,97923.19
2022-10-18T01:26:00.804Z,97914.38
2022-10-18T01:28:35.435Z,97929.72
2022-10-18T01:31:07.092Z,97942.03
2022-10-18T01:33:40.839Z,97945.78
2022-10-18T01:36:26.022Z,97924.50
2022-10-18T01:38:56.614Z,97901.53
2022-10-18T01:41:25.161Z,97906.97
2022-10-18T01:43:57.534Z,97906.00
2022-10-18T01:46:26.179Z,97895.38
2022-10-18T01:48:54.817Z,97893.91
2022-10-18T01:51:30.088Z,97900.94
2022-10-18T01:53:57.585Z,97904.53
2022-10-18T01:56:51.928Z,97906.47
2022-10-18T01:59:33.526Z,97913.59
2022-10-18T02:02:17.793Z,97909.25
2022-10-18T02:04:54.731Z,97897.91
2022-10-18T02:08:19.265Z,97902.59
2022-10-18T02:10:54.612Z,97904.50
2022-10-18T02:13:23.619Z,97884.72
2022-10-18T02:15:54.888Z,97886.41
2022-10-18T02:18:28.243Z,97880.47
2022-10-18T02:20:55.165Z,97887.00
2022-10-18T02:23:25.204Z,97890.50
2022-10-18T02:25:53.368Z,97891.59
2022-10-18T02:28:20.554Z,97897.75
2022-10-18T02:31:02.697Z,97897.97
2022-10-18T02:33:52.850Z,97901.72
2022-10-18T02:36:28.217Z,97899.19
2022-10-18T02:39:00.429Z,97897.47
2022-10-18T02:41:28.124Z,97897.34
2022-10-18T02:43:54.740Z,97890.47
2022-10-18T02:46:21.390Z,97888.03
2022-10-18T02:48:48.553Z,97887.31
2022-10-18T02:51:15.707Z,97882.09
2022-10-18T02:53:42.338Z,97881.25
2022-10-18T02:56:09.208Z,97873.16
2022-10-18T02:58:35.800Z,97870.38
2022-10-18T03:01:02.463Z,97855.53
2022-10-18T03:03:29.023Z,97851.31
2022-10-18T03:05:55.610Z,97862.78
2022-10-18T03:08:22.763Z,97851.06
2022-10-18T03:10:49.461Z,97854.44
2022-10-18T03:13:16.260Z,97856.38
2022-10-18T03:15:42.967Z,97866.16
2022-10-18T03:18:09.804Z,97871.59
2022-10-18T03:20:36.729Z,97872.56
2022-10-18T03:23:03.635Z,97875.44
2022-10-18T03:25:30.212Z,97878.34
2022-10-18T03:27:56.789Z,97881.13
2022-10-18T03:30:23.333Z,97881.97
2022-10-18T03:32:50.121Z,97884.63
2022-10-18T03:35:16.814Z,97884.50
2022-10-18T03:37:43.395Z,97888.97
2022-10-18T03:40:10.190Z,97892.59
2022-10-18T03:42:36.807Z,97893.44
2022-10-18T03:45:03.881Z,97892.59
2022-10-18T03:47:30.471Z,97893.56
2022-10-18T03:49:57.489Z,97891.81
2022-10-18T03:52:24.387Z,97886.63
2022-10-18T03:54:50.998Z,97886.16
2022-10-18T03:57:17.682Z,97887.13
2022-10-18T03:59:44.293Z,97895.94
2022-10-18T04:02:10.902Z,97897.63
2022-10-18T04:04:37.442Z,97895.56
2022-10-18T04:07:04.107Z,97894.50
2022-10-18T04:09:30.666Z,97890.25
2022-10-18T04:11:57.326Z,97894.50
2022-10-18T04:14:23.894Z,97892.59
2022-10-18T04:16:50.552Z,97889.81
2022-10-18T04:19:17.603Z,97887.16
2022-10-18T04:21:44.201Z,97889.81
2022-10-18T04:24:18.039Z,97891.25
2022-10-18T04:26:44.702Z,97895.00
2022-10-18T04:29:11.680Z,97890.53
2022-10-18T04:31:38.299Z,97895.13
2022-10-18T04:34:04.970Z,97887.59
2022-10-18T04:36:31.661Z,97897.25
2022-10-18T04:38:58.291Z,97896.22
2022-10-18T04:41:24.876Z,97891.63
2022-10-18T04:43:51.548Z,97895.97
2022-10-18T04:46:18.117Z,97893.31
2022-10-18T04:48:44.699Z,97891.63
2022-10-18T04:51:11.259Z,97899.34
2022-10-18T04:53:37.862Z,97898.50
2022-10-18T04:56:04.595Z,97899.22
2022-10-18T04:58:31.326Z,97899.16
2022-10-18T05:00:57.883Z,97892.88
2022-10-18T05:03:24.493Z,97899.75
2022-10-18T05:06:01.277Z,97898.91
2022-10-18T05:08:29.361Z,97899.88
2022-10-18T05:10:56.063Z,97901.88
2022-10-18T05:13:22.689Z,97902.97
2022-10-18T05:15:49.254Z,97901.16
2022-10-18T05:18:15.916Z,97906.59
2022-10-18T05:20:42.528Z,97902.13
2022-10-18T05:23:10.895Z,97909.25
2022-10-18T05:25:42.223Z,97906.34
2022-10-18T05:28:27.153Z,97905.50
2022-10-18T05:30:56.311Z,97909.13
2022-10-18T05:33:22.886Z,97915.53
2022-10-18T05:35:49.495Z,97921.56
2022-10-18T05:38:16.089Z,97911.31
2022-10-18T05:40:42.688Z,97916.63
2022-10-18T05:43:09.272Z,97911.19
2022-10-18T05:45:35.805Z,97914.56
2022-10-18T05:48:02.372Z,97911.66
2022-10-18T05:50:29.105Z,97909.00
2022-10-18T05:53:02.760Z,97911.66
2022-10-18T05:55:38.837Z,97911.66
2022-10-18T05:58:05.795Z,97912.75
2022-10-18T06:00:32.514Z,97907.19
2022-10-18T06:03:00.370Z,97897.66
2022-10-18T06:05:28.064Z,97907.19
2022-10-18T06:07:56.440Z,97905.31
2022-10-18T06:10:23.235Z,97906.25
2022-10-18T06:12:49.815Z,97908.06
2022-10-18T06:15:16.552Z,97910.72
2022-10-18T06:17:43.123Z,97914.22
2022-10-18T06:20:10.405Z,97916.78
2022-10-18T06:22:36.983Z,97923.78
2022-10-18T06:25:03.652Z,97927.16
2022-10-18T06:27:31.875Z,97927.91
2022-10-18T06:29:58.854Z,97932.16
2022-10-18T06:32:25.451Z,97925.63
2022-10-18T06:34:52.057Z,97927.19
2022-10-18T06:37:18.632Z,97924.34
2022-10-18T06:39:45.214Z,97929.66
2022-10-18T06:42:11.870Z,97922.41
2022-10-18T06:44:38.474Z,97932.91
2022-10-18T06:47:05.080Z,97936.19
2022-10-18T06:49:31.688Z,97945.88
2022-10-18T06:51:58.245Z,97948.41
2022-10-18T06:54:24.851Z,97951.47
2022-10-18T06:56:51.437Z,97951.94
2022-10-18T06:59:18.289Z,97955.84
2022-10-18T07:01:44.987Z,97953.94
2022-10-18T07:04:11.629Z,97964.56
2022-10-18T07:06:38.178Z,97963.94
2022-10-18T07:09:04.805Z,97980.94
2022-10-18T07:11:31.492Z,97973.22
2022-10-18T07:14:04.155Z,97971.53
2022-10-18T07:16:32.435Z,97976.25
2022-10-18T07:18:59.022Z,97970.41
2022-10-18T07:21:26.839Z,97976.81
2022-10-18T07:23:53.608Z,97981.50
2022-10-18T07:26:29.796Z,97981.50
2022-10-18T07:29:09.541Z,97973.63
2022-10-18T07:31:38.411Z,97984.50
2022-10-18T07:34:06.026Z,97987.91
2022-10-18T07:36:32.642Z,97992.97
2022-10-18T07:38:59.725Z,97994.66
2022-10-18T07:41:26.631Z,98000.88
2022-10-18T07:43:54.307Z,98012.44
2022-10-18T07:46:22.404Z,98006.63
2022-10-18T07:48:49.897Z,98008.19
2022-10-18T07:51:16.955Z,98007.97
2022-10-18T07:53:43.945Z,98010.63
2022-10-18T07:56:16.985Z,98012.50
2022-10-18T07:58:48.954Z,98010.13
2022-10-18T08:01:15.715Z,98005.31
2022-10-18T08:03:43.144Z,98010.66
2022-10-18T08:06:12.858Z,98018.81
2022-10-18T08:08:40.542Z,98012.03
2022-10-18T08:11:16.268Z,98024.03
2022-10-18T08:13:43.371Z,98029.50
2022-10-18T08:16:12.934Z,98027.16
2022-10-18T08:18:40.181Z,98027.53
2022-10-18T08:21:08.993Z,98029.09
2022-10-18T08:23:36.319Z,98032.47
2022-10-18T08:26:05.423Z,98035.38
2022-10-18T08:28:32.524Z,98032.84
2022-10-18T08:31:03.387Z,98041.78
2022-10-18T08:33:29.979Z,98048.72
2022-10-18T08:35:58.187Z,98051.16
2022-10-18T08:38:24.897Z,98041.97
2022-10-18T08:40:52.249Z,98046.47
2022-10-18T08:43:46.427Z,98041.88
2022-10-18T08:46:14.521Z,98046.22
2022-10-18T08:48:45.202Z,98040.44
2022-10-18T08:51:30.267Z,98042.00
2022-10-18T08:54:04.496Z,98045.06
2022-10-18T08:56:33.514Z,98039.28
2022-10-18T08:59:03.779Z,98041.38
2022-10-18T09:02:02.523Z,98048.53
2022-10-18T09:04:51.047Z,98044.09
2022-10-18T09:07:53.415Z,98041.19
2022-10-18T09:10:38.878Z,98052.22
2022-10-18T09:13:47.323Z,98056.69
2022-10-18T09:17:04.985Z,98056.56
2022-10-18T09:20:07.302Z,98050.78
2022-10-18T09:22:45.739Z,98056.69
2022-10-18T09:25:18.343Z,98058.75
2022-10-18T09:27:44.851Z,98059.63
2022-10-18T09:30:26.582Z,98063.72
2022-10-18T09:32:53.089Z,98059.63
2022-10-18T09:35:27.499Z,98065.66
2022-10-18T09:38:03.436Z,98069.63
2022-10-18T09:40:36.315Z,98072.69
2022-10-18T09:43:22.171Z,98069.69
2022-10-18T09:45:50.255Z,98067.13
2022-10-18T09:48:33.395Z,98070.84
2022-10-18T09:51:23.506Z,98073.16
2022-10-18T09:54:05.214Z,98078.50
2022-10-18T09:56:51.478Z,98081.56
2022-10-18T09:59:23.913Z,98091.38
2022-10-18T10:01:50.513Z,98085.47
2022-10-18T10:04:17.061Z,98089.91
2022-10-18T10:06:50.783Z,98084.38
2022-10-18T10:09:21.437Z,98086.06
2022-10-18T10:11:50.249Z,98080.94
2022-10-18T10:14:43.729Z,98086.84
2022-10-18T10:17:26.623Z,98091.53
2022-10-18T10:20:17.136Z,98091.31
2022-10-18T10:22:47.195Z,98094.34
2022-10-18T10:25:33.269Z,98096.66
2022-10-18T10:28:07.058Z,98100.31
2022-10-18T10:30:38.493Z,98099.13
2022-10-18T10:33:06.784Z,98097.19
2022-10-18T10:35:55.549Z,98097.91
2022-10-18T10:38:27.345Z,98101.75
2022-10-18T10:40:54.371Z,98107.69
2022-10-18T10:43:38.211Z,98106.38
2022-10-18T10:46:15.198Z,98107.97
2022-10-18T10:48:57.051Z,98106.16
2022-10-18T10:51:39.077Z,98112.94
2022-10-18T10:54:21.829Z,98109.19
2022-10-18T10:56:56.701Z,98112.09
2022-10-18T10:59:26.443Z,98112.41
2022-10-18T11:02:35.987Z,98110.81
2022-10-18T11:05:41.892Z,98108.97
2022-10-18T11:08:11.302Z,98110.44
2022-10-18T11:11:09.508Z,98110.78
2022-10-18T11:14:20.601Z,98116.97
2022-10-18T11:16:48.822Z,98113.16
2022-10-18T11:19:55.518Z,98118.31
2022-10-18T11:22:25.551Z,98112.19
2022-10-18T11:24:52.166Z,98112.53
2022-10-18T11:27:54.345Z,98114.50
2022-10-18T11:30:45.736Z,98122.28
2022-10-18T11:33:50.163Z,98118.66
2022-10-18T11:38:55.797Z,98110.13
2022-10-18T11:41:39.934Z,98115.19
2022-10-18T11:44:37.533Z,98110.41
2022-10-18T11:47:37.061Z,98107.97
2022-10-18T11:50:27.732Z,98102.09
2022-10-18T11:53:25.229Z,98103.44
2022-10-18T11:56:13.548Z,98095.75
2022-10-18T11:58:57.515Z,98098.66
2022-10-18T12:01:30.662Z,98090.31
2022-10-18T12:04:17.907Z,98093.91
2022-10-18T12:06:48.677Z,98093.41
2022-10-18T12:09:24.226Z,98088.09
2022-10-18T12:11:57.646Z,98084.47
2022-10-18T12:14:30.943Z,98091.16
2022-10-18T12:17:35.534Z,98086.22
2022-10-18T12:19:51.876Z,98085.63
2022-10-18T12:22:38.366Z,98084.44
2022-10-18T12:25:10.298Z,98085.97
2022-10-18T12:27:45.877Z,98083.38
2022-10-18T12:30:47.235Z,98087.91
2022-10-18T12:33:28.285Z,98088.69
2022-10-18T12:36:13.847Z,98082.19
2022-10-18T12:38:43.748Z,98082.69
2022-10-18T12:41:23.371Z,98087.16
2022-10-18T12:43:54.761Z,98088.56
2022-10-18T12:46:21.493Z,98092.28
2022-10-18T12:49:03.225Z,98089.56
2022-10-18T12:51:29.966Z,98084.50
2022-10-18T12:54:11.606Z,98089.00
2022-10-18T12:56:43.356Z,98090.63
2022-10-18T12:59:16.009Z,98083.09
2022-10-18T13:01:51.789Z,98082.16
2022-10-18T13:04:27.662Z,98084.84
2022-10-18T13:06:59.952Z,98088.56
2022-10-18T13:09:28.757Z,98082.00
2022-10-18T13:12:18.669Z,98087.31
2022-10-18T13:15:05.890Z,98080.78
2022-10-18T13:17:42.699Z,98075.78
2022-10-18T13:20:26.029Z,98077.97
2022-10-18T13:22:56.463Z,98067.19
2022-10-18T13:25:31.874Z,98077.75
2022-10-18T13:28:30.963Z,98078.91
2022-10-18T13:31:28.482Z,98079.56
2022-10-18T13:33:55.404Z,98076.81
2022-10-18T13:36:25.298Z,98084.34
2022-10-18T13:39:03.767Z,98083.09
2022-10-18T13:41:35.455Z,98088.63
2022-10-18T13:44:30.395Z,98088.69
2022-10-18T13:46:56.913Z,98089.19
2022-10-18T13:49:38.803Z,98084.97
2022-10-18T13:52:27.919Z,98086.81
2022-10-18T13:55:20.417Z,98094.59
2022-10-18T13:58:07.856Z,98093.53
2022-10-18T14:00:52.655Z,98091.09
2022-10-18T14:03:58.687Z,98095.88
2022-10-18T14:06:32.922Z,98094.63
2022-10-18T14:09:13.938Z,98101.34
2022-10-18T14:11:56.662Z,98099.25
2022-10-18T14:14:53.490Z,98098.78
2022-10-18T14:17:48.778Z,98104.34
2022-10-18T14:20:18.848Z,98096.31
2022-10-18T14:23:05.863Z,98110.69
2022-10-18T14:25:37.266Z,98119.81
2022-10-18T14:28:27.344Z,98117.06
2022-10-18T14:31:13.599Z,98118.88
2022-10-18T14:33:47.484Z,98113.88
2022-10-18T14:36:19.827Z,98109.75
2022-10-18T14:38:56.565Z,98102.94
2022-10-18T14:41:34.815Z,98101.16
2022-10-18T14:44:16.713Z,98104.66
2022-10-18T14:46:45.584Z,98110.00
2022-10-18T14:49:14.498Z,98117.53
2022-10-18T14:51:43.574Z,98111.09
2022-10-18T14:54:25.008Z,98105.59
2022-10-18T14:56:54.706Z,98101.88
2022-10-18T14:59:27.485Z,98100.22
2022-10-18T15:02:05.209Z,98098.59
2022-10-18T15:04:33.388Z,98109.72
2022-10-18T15:07:06.070Z,98106.50
2022-10-18T15:09:36.129Z,98109.22
2022-10-18T15:12:06.187Z,98113.81
2022-10-18T15:14:35.018Z,98120.66
2022-10-18T15:17:07.752Z,98119.22
2022-10-18T15:19:39.485Z,98113.41
2022-10-18T15:25:16.197Z,98120.56
2022-10-18T15:28:03.270Z,98115.38
2022-10-18T15:30:39.085Z,98113.53
2022-10-18T15:33:10.587Z,98113.94
2022-10-18T15:35:38.861Z,98105.56
2022-10-18T15:38:14.395Z,98103.75
2022-10-18T15:40:42.126Z,98103.56
2022-10-18T15:43:23.693Z,98102.97
2022-10-18T15:45:51.698Z,98102.94
2022-10-18T15:48:25.957Z,98107.75
2022-10-18T15:50:57.421Z,98107.63
2022-10-18T15:53:34.508Z,98096.81
2022-10-18T15:56:05.084Z,98098.25
2022-10-18T15:58:49.055Z,98097.47
2022-10-18T16:01:33.429Z,98100.91
2022-10-18T16:04:00.892Z,98102.22
2022-10-18T16:06:27.619Z,98106.63
2022-10-18T16:08:54.397Z,98115.28
2022-10-18T16:11:23.938Z,98113.81
2022-10-18T16:13:55.104Z,98109.88
2022-10-18T16:16:26.723Z,98121.50
2022-10-18T16:18:54.222Z,98124.41
2022-10-18T16:21:29.934Z,98126.22
2022-10-18T16:23:56.801Z,98126.03
2022-10-18T16:26:24.702Z,98118.59
2022-10-18T16:28:52.114Z,98127.59
2022-10-18T16:31:30.492Z,98123.84
2022-10-18T16:33:57.847Z,98120.47
2022-10-18T16:36:30.114Z,98125.09
2022-10-18T16:39:03.213Z,98124.88
2022-10-18T16:41:29.863Z,98134.31
2022-10-18T16:43:56.485Z,98132.84
2022-10-18T16:46:29.224Z,98137.19
2022-10-18T16:48:56.694Z,98140.91
2022-10-18T16:51:23.652Z,98139.81
2022-10-18T16:53:50.408Z,98135.94
2022-10-18T16:56:20.861Z,98147.03
2022-10-18T16:58:48.793Z,98144.88
2022-10-18T17:01:18.172Z,98140.00
2022-10-18T17:03:45.182Z,98145.22
2022-10-18T17:06:17.887Z,98144.00
2022-10-18T17:08:44.614Z,98146.97
2022-10-18T17:11:12.791Z,98150.34
2022-10-18T17:13:39.472Z,98150.84
2022-10-18T17:16:07.446Z,98158.97
2022-10-18T17:18:34.037Z,98163.50
2022-10-18T17:21:03.265Z,98158.91
2022-10-18T17:23:30.399Z,98163.97
2022-10-18T17:26:05.372Z,98172.03
2022-10-18T17:28:35.580Z,98172.31
2022-10-18T17:31:02.197Z,98169.69
2022-10-18T17:33:28.759Z,98171.06
2022-10-18T17:35:55.398Z,98175.16
2022-10-18T17:38:21.942Z,98173.94
2022-10-18T17:40:48.512Z,98165.59
2022-10-18T17:43:15.148Z,98173.75
2022-10-18T17:45:48.609Z,98176.50
2022-10-18T17:48:17.203Z,98174.78
2022-10-18T17:50:43.782Z,98172.59
2022-10-18T17:53:11.980Z,98173.00
2022-10-18T17:55:39.333Z,98184.72
2022-10-18T17:58:06.174Z,98178.75
2022-10-18T18:00:32.854Z,98163.34
2022-10-18T18:03:00.263Z,98172.78
2022-10-18T18:05:31.535Z,98174.22
2022-10-18T18:08:02.749Z,98187.25
2022-10-18T18:10:33.330Z,98182.91
2022-10-18T18:13:00.303Z,98187.16
2022-10-18T18:15:27.042Z,98181.56
2022-10-18T18:17:57.100Z,98184.03
2022-10-18T18:20:24.620Z,98194.88
2022-10-18T18:22:51.965Z,98195.25
2022-10-18T18:25:18.818Z,98189.66
2022-10-18T18:27:45.644Z,98188.50
2022-10-18T18:30:13.332Z,98195.22
2022-10-18T18:32:40.555Z,98194.16
2022-10-18T18:35:08.160Z,98193.78
2022-10-18T18:37:35.423Z,98198.78
2022-10-18T18:40:02.612Z,98196.16
2022-10-18T18:42:30.094Z,98192.81
2022-10-18T18:44:57.377Z,98198.63
2022-10-18T18:47:24.595Z,98201.38
2022-10-18T18:49:51.913Z,98194.00
2022-10-18T18:52:18.971Z,98192.63
2022-10-18T18:54:45.789Z,98206.78
2022-10-18T18:57:12.352Z,98197.81
2022-10-18T18:59:39.109Z,98199.88
2022-10-18T19:02:05.658Z,98196.81
2022-10-18T19:04:32.877Z,98197.34
2022-10-18T19:06:59.492Z,98194.69
2022-10-18T19:09:27.401Z,98194.38
2022-10-18T19:11:56.014Z,98187.44
2022-10-18T19:14:25.388Z,98190.31
2022-10-18T19:16:54.889Z,98188.91
2022-10-18T19:19:31.818Z,98188.28
2022-10-18T19:22:01.464Z,98184.22
2022-10-18T19:24:33.115Z,98189.00
2022-10-18T19:27:05.832Z,98193.59
2022-10-18T19:29:35.817Z,98184.81
2022-10-18T19:32:05.674Z,98191.00
2022-10-18T19:34:34.673Z,98190.25
2022-10-18T19:37:02.188Z,98188.09
2022-10-18T19:39:32.196Z,98186.88
2022-10-18T19:42:03.321Z,98187.94
2022-10-18T19:44:32.413Z,98191.34
2022-10-18T19:47:00.142Z,98193.13
2022-10-18T19:49:28.809Z,98182.81
2022-10-18T19:51:56.548Z,98182.72
2022-10-18T19:54:23.432Z,98183.19
2022-10-18T19:56:50.155Z,98187.53
2022-10-18T19:59:17.540Z,98182.44
2022-10-18T20:01:45.180Z,98189.22
2022-10-18T20:04:12.903Z,98189.72
2022-10-18T20:06:40.303Z,98183.75
2022-10-18T20:09:08.734Z,98190.66
2022-10-18T20:11:36.066Z,98195.09
2022-10-18T20:14:05.329Z,98190.94
2022-10-18T20:16:33.316Z,98189.69
2022-10-18T20:19:02.306Z,98187.69
2022-10-18T20:21:31.454Z,98193.19
2022-10-18T20:23:58.014Z,98187.88
2022-10-18T20:26:25.719Z,98198.44
2022-10-18T20:28:58.736Z,98193.53
2022-10-18T20:31:30.752Z,98194.97
2022-10-18T20:34:02.597Z,98195.81
2022-10-18T20:36:31.276Z,98196.88
2022-10-18T20:38:58.457Z,98192.78
2022-10-18T20:41:27.922Z,98189.34
2022-10-18T20:43:59.790Z,98190.19
2022-10-18T20:46:29.584Z,98186.88
2022-10-18T20:48:56.253Z,98197.19
2022-10-18T20:51:23.259Z,98193.59
2022-10-18T20:53:50.610Z,98193.44
2022-10-18T20:56:27.734Z,98191.97
2022-10-18T20:58:56.142Z,98193.69
2022-10-18T21:01:25.848Z,98192.84
2022-10-18T21:03:54.326Z,98198.97
2022-10-18T21:06:26.556Z,98202.22
2022-10-18T21:09:05.706Z,98198.91
2022-10-18T21:11:36.495Z,98195.66
2022-10-18T21:14:04.057Z,98195.22
2022-10-18T21:16:35.812Z,98195.75
2022-10-18T21:19:07.911Z,98189.19
2022-10-18T21:21:35.243Z,98190.03
2022-10-18T21:24:05.387Z,98182.03
2022-10-18T21:26:34.910Z,98181.75
2022-10-18T21:29:01.814Z,98177.25
2022-10-18T21:31:30.979Z,98178.09
2022-10-18T21:34:04.368Z,98189.69
2022-10-18T21:36:33.467Z,98185.34
2022-10-18T21:39:00.130Z,98183.28
2022-10-18T21:41:26.778Z,98190.00
2022-10-18T21:43:54.795Z,98182.69
2022-10-18T21:46:23.062Z,98185.03
2022-10-18T21:48:51.736Z,98175.00
2022-10-18T21:51:20.870Z,98175.09
2022-10-18T21:53:50.502Z,98168.50
2022-10-18T21:56:19.808Z,98171.56
2022-10-18T21:58:46.823Z,98176.16
2022-10-18T22:01:25.104Z,98171.34
2022-10-18T22:03:53.877Z,98172.22
2022-10-18T22:06:21.656Z,98158.72
2022-10-18T22:08:56.766Z,98155.59
2022-10-18T22:11:26.677Z,98150.06
2022-10-18T22:13:53.975Z,98158.19
2022-10-18T22:16:20.817Z,98145.31
2022-10-18T22:18:49.224Z,98150.09
2022-10-18T22:21:17.492Z,98157.63
2022-10-18T22:23:49.592Z,98159.41
2022-10-18T22:26:23.547Z,98152.16
2022-10-18T22:29:02.121Z,98153.50
2022-10-18T22:31:32.233Z,98150.63
2022-10-18T22:34:01.261Z,98147.72
2022-10-18T22:36:27.884Z,98150.47
2022-10-18T22:38:54.473Z,98144.28
2022-10-18T22:41:21.615Z,98144.94
2022-10-18T22:43:50.462Z,98141.28
2022-10-18T22:46:17.068Z,98142.16
2022-10-18T22:48:44.826Z,98136.66
2022-10-18T22:51:12.029Z,98136.38
2022-10-18T22:53:40.315Z,98135.09
2022-10-18T22:56:08.582Z,98138.22
2022-10-18T22:58:35.230Z,98136.16
2022-10-18T23:01:07.458Z,98141.47
2022-10-18T23:03:34.579Z,98146.09
2022-10-18T23:06:01.264Z,98146.31
2022-10-18T23:08:28.477Z,98143.47
2022-10-18T23:10:58.149Z,98142.13
2022-10-18T23:13:26.517Z,98142.53
2022-10-18T23:15:53.307Z,98141.28
2022-10-18T23:18:19.909Z,98138.25
2022-10-18T23:20:46.576Z,98139.78
2022-10-18T23:23:13.775Z,98135.72
2022-10-18T23:25:40.580Z,98139.78
2022-10-18T23:28:07.555Z,98133.34
2022-10-18T23:30:34.311Z,98139.31
2022-10-18T23:33:01.007Z,98131.47
2022-10-18T23:35:29.327Z,98135.81
2022-10-18T23:37:55.905Z,98133.25
2022-10-18T23:40:22.535Z,98132.13
2022-10-18T23:42:49.141Z,98128.53
2022-10-18T23:45:15.773Z,98130.34
2022-10-18T23:47:42.340Z,98126.09
2022-10-18T23:50:09.210Z,98121.75
2022-10-18T23:52:35.787Z,98131.28
2022-10-18T23:55:02.577Z,98123.44
2022-10-18T23:57:29.408Z,98133.06
2022-10-18T23:59:56.040Z,98129.47
